createdAt,value
2023-04-15T00:00:35.687Z,59.5521
2023-04-15T00:01:36.756Z,59.4147
2023-04-15T00:02:37.890Z,59.3847
2023-04-15T00:03:39.123Z,58.5099
2023-04-15T00:04:39.857Z,58.3431
2023-04-15T00:05:40.935Z,58.3690
2023-04-15T00:06:41.934Z,58.1350
2023-04-15T00:07:43.720Z,57.2672
2023-04-15T00:08:43.875Z,56.7207
2023-04-15T00:09:44.952Z,56.8865
2023-04-15T00:10:46.017Z,57.4944
2023-04-15T00:11:47.029Z,57.6410
2023-04-15T00:12:48.059Z,58.0182
2023-04-15T00:13:49.104Z,58.4465
2023-04-15T00:14:50.185Z,58.2625
2023-04-15T00:15:51.240Z,58.7818
2023-04-15T00:16:52.340Z,58.9227
2023-04-15T00:17:53.286Z,59.1553
2023-04-15T00:18:54.343Z,59.1279
2023-04-15T00:19:55.358Z,58.4585
2023-04-15T00:20:56.464Z,59.2132
2023-04-15T00:21:57.453Z,58.7376
2023-04-15T00:22:58.506Z,58.8974
2023-04-15T00:23:59.533Z,58.7128
2023-04-15T00:25:00.577Z,58.6719
2023-04-15T00:26:01.667Z,59.3811
2023-04-15T00:27:02.698Z,60.0648
2023-04-15T00:28:03.700Z,59.4822
2023-04-15T00:29:04.749Z,59.4337
2023-04-15T00:30:05.783Z,59.0890
2023-04-15T00:31:06.884Z,58.7336
2023-04-15T00:32:07.900Z,58.8726
2023-04-15T00:33:08.923Z,58.8104
2023-04-15T00:34:09.988Z,58.9786
2023-04-15T00:35:11.048Z,58.5920
2023-04-15T00:36:12.071Z,58.9792
2023-04-15T00:37:13.081Z,59.9076
2023-04-15T00:38:14.157Z,59.3599
2023-04-15T00:39:15.239Z,59.4176
2023-04-15T00:40:16.230Z,59.7108
2023-04-15T00:41:17.326Z,59.8797
2023-04-15T00:42:18.364Z,59.6913
2023-04-15T00:43:19.365Z,59.7594
2023-04-15T00:44:20.399Z,60.4234
2023-04-15T00:45:21.434Z,60.7596
2023-04-15T00:46:22.542Z,60.8088
2023-04-15T00:47:23.621Z,61.2596
2023-04-15T00:48:24.568Z,61.1178
2023-04-15T00:49:25.624Z,60.6345
2023-04-15T00:50:26.693Z,60.3417
2023-04-15T00:51:27.708Z,60.2994
2023-04-15T00:52:28.825Z,60.3573
2023-04-15T00:53:29.834Z,60.9199
2023-04-15T00:54:30.843Z,61.1207
2023-04-15T00:55:31.925Z,60.4830
2023-04-15T00:56:32.987Z,60.4108
2023-04-15T00:57:34.111Z,60.8819
2023-04-15T00:58:35.143Z,60.5022
2023-04-15T00:59:36.195Z,60.0422
2023-04-15T01:00:37.230Z,59.2238
2023-04-15T01:01:38.322Z,59.5182
2023-04-15T01:02:39.598Z,59.7631
2023-04-15T01:03:40.467Z,59.1915
2023-04-15T01:04:41.393Z,58.6083
2023-04-15T01:05:42.442Z,58.6774
2023-04-15T01:06:43.534Z,58.6797
2023-04-15T01:07:44.596Z,59.7093
2023-04-15T01:08:45.626Z,60.3876
2023-04-15T01:09:46.594Z,60.6350
2023-04-15T01:10:47.666Z,60.4430
2023-04-15T01:11:48.724Z,60.6353
2023-04-15T01:12:49.733Z,60.2523
2023-04-15T01:13:50.828Z,58.7256
2023-04-15T01:14:51.833Z,58.0746
2023-04-15T01:15:52.845Z,58.3511
2023-04-15T01:16:53.860Z,58.9955
2023-04-15T01:17:55.029Z,59.4077
2023-04-15T01:18:55.947Z,59.5301
2023-04-15T01:19:57.015Z,59.8610
2023-04-15T01:20:58.031Z,60.4236
2023-04-15T01:21:59.072Z,60.5946
2023-04-15T01:23:00.263Z,60.3196
2023-04-15T01:24:01.170Z,60.7626
2023-04-15T01:25:02.202Z,60.3832
2023-04-15T01:26:03.272Z,60.1210
2023-04-15T01:27:04.278Z,59.6597
2023-04-15T01:28:05.383Z,59.7506
2023-04-15T01:29:06.344Z,59.6270
2023-04-15T01:30:07.453Z,58.7306
2023-04-15T01:31:08.518Z,58.1290
2023-04-15T01:32:09.472Z,59.2967
2023-04-15T01:33:10.531Z,59.2883
2023-04-15T01:34:11.555Z,58.9451
2023-04-15T01:35:12.608Z,58.0630
2023-04-15T01:36:13.613Z,57.4178
2023-04-15T01:37:14.650Z,57.5760
2023-04-15T01:38:15.730Z,57.2990
2023-04-15T01:39:16.829Z,57.0458
2023-04-15T01:40:17.778Z,57.7344
2023-04-15T01:41:18.833Z,58.0035
2023-04-15T01:42:19.850Z,58.1601
2023-04-15T01:43:20.926Z,58.3837
2023-04-15T01:44:21.932Z,58.3019
2023-04-15T01:45:22.951Z,58.6659
2023-04-15T01:46:24.021Z,58.4176
2023-04-15T01:47:25.072Z,58.6081
2023-04-15T01:48:26.145Z,57.9370
2023-04-15T01:49:27.127Z,57.5727
2023-04-15T01:50:28.090Z,57.6052
2023-04-15T01:51:29.144Z,57.7430
2023-04-15T01:52:30.171Z,57.1774
2023-04-15T01:53:31.226Z,56.3704
2023-04-15T01:54:32.262Z,56.5365
2023-04-15T01:55:33.318Z,57.1328
2023-04-15T01:56:34.351Z,57.2845
2023-04-15T01:57:35.372Z,57.7895
2023-04-15T01:58:36.472Z,57.8108
2023-04-15T01:59:37.473Z,58.2143
2023-04-15T02:00:38.539Z,58.6374
2023-04-15T02:01:39.573Z,59.0399
2023-04-15T02:02:40.746Z,59.9835
2023-04-15T02:03:41.781Z,59.5283
2023-04-15T02:04:42.685Z,59.6414
2023-04-15T02:05:43.702Z,59.5647
2023-04-15T02:06:44.731Z,59.5174
2023-04-15T02:07:45.769Z,58.9111
2023-04-15T02:08:46.869Z,59.0700
2023-04-15T02:09:47.876Z,59.3502
2023-04-15T02:10:48.915Z,59.7209
2023-04-15T02:11:49.977Z,60.1836
2023-04-15T02:12:51.014Z,60.5060
2023-04-15T02:13:52.096Z,60.7977
2023-04-15T02:14:53.102Z,61.1917
2023-04-15T02:15:54.140Z,61.6990
2023-04-15T02:16:55.242Z,60.9956
2023-04-15T02:17:56.228Z,60.8719
2023-04-15T02:18:57.283Z,61.3019
2023-04-15T02:19:58.280Z,61.0749
2023-04-15T02:20:59.393Z,61.3126
2023-04-15T02:22:00.372Z,61.9726
2023-04-15T02:23:01.424Z,62.1178
2023-04-15T02:24:02.500Z,61.9725
2023-04-15T02:25:03.531Z,61.6456
2023-04-15T02:26:04.539Z,60.6714
2023-04-15T02:27:05.556Z,59.9718
2023-04-15T02:28:06.622Z,59.2762
2023-04-15T02:29:07.661Z,58.5173
2023-04-15T02:30:08.683Z,58.1992
2023-04-15T02:31:09.775Z,58.5414
2023-04-15T02:32:10.914Z,58.4470
2023-04-15T02:33:11.838Z,59.1819
2023-04-15T02:34:12.898Z,59.5611
2023-04-15T02:35:13.996Z,59.5833
2023-04-15T02:36:14.961Z,59.3461
2023-04-15T02:37:16.017Z,59.7973
2023-04-15T02:38:17.089Z,60.0047
2023-04-15T02:39:18.085Z,60.0427
2023-04-15T02:40:19.239Z,60.6588
2023-04-15T02:41:20.321Z,60.4024
2023-04-15T02:42:21.314Z,59.6541
2023-04-15T02:43:22.356Z,60.0483
2023-04-15T02:44:23.378Z,59.9653
2023-04-15T02:45:24.505Z,59.8316
2023-04-15T02:46:25.588Z,58.9420
2023-04-15T02:47:26.593Z,58.8911
2023-04-15T02:48:27.557Z,58.8435
2023-04-15T02:49:28.752Z,58.9995
2023-04-15T02:50:30.071Z,58.9550
2023-04-15T02:51:30.870Z,58.5465
2023-04-15T02:52:31.754Z,57.6696
2023-04-15T02:53:32.831Z,57.9472
2023-04-15T02:54:33.840Z,58.1659
2023-04-15T02:55:34.916Z,58.5267
2023-04-15T02:56:35.912Z,58.9465
2023-04-15T02:57:36.989Z,59.0213
2023-04-15T02:58:37.995Z,59.3094
2023-04-15T02:59:39.037Z,59.1028
2023-04-15T03:00:40.151Z,59.0353
2023-04-15T03:01:41.088Z,59.4104
2023-04-15T03:02:42.461Z,59.4681
2023-04-15T03:03:43.380Z,59.5660
2023-04-15T03:04:44.350Z,59.1631
2023-04-15T03:05:45.410Z,59.2663
2023-04-15T03:06:46.369Z,59.8824
2023-04-15T03:07:47.424Z,58.8375
2023-04-15T03:08:48.549Z,58.8826
2023-04-15T03:09:49.515Z,58.8595
2023-04-15T03:10:50.572Z,58.9711
2023-04-15T03:11:51.573Z,58.4851
2023-04-15T03:12:52.619Z,58.8683
2023-04-15T03:13:53.689Z,59.3787
2023-04-15T03:14:54.718Z,58.9353
2023-04-15T03:15:55.887Z,58.1916
2023-04-15T03:16:56.830Z,57.8001
2023-04-15T03:17:57.930Z,57.5112
2023-04-15T03:18:59.020Z,58.1618
2023-04-15T03:19:59.964Z,57.9242
2023-04-15T03:21:01.027Z,57.4106
2023-04-15T03:22:02.016Z,57.6049
2023-04-15T03:23:03.058Z,58.2657
2023-04-15T03:24:04.200Z,57.8534
2023-04-15T03:25:05.145Z,58.3500
2023-04-15T03:26:06.238Z,57.6489
2023-04-15T03:27:07.294Z,57.8636
2023-04-15T03:28:08.276Z,57.4323
2023-04-15T03:29:09.318Z,57.6330
2023-04-15T03:30:10.334Z,58.2072
2023-04-15T03:31:11.458Z,58.6585
2023-04-15T03:32:12.508Z,58.8358
2023-04-15T03:33:13.400Z,59.3520
2023-04-15T03:34:14.441Z,59.9881
2023-04-15T03:35:15.491Z,59.2061
2023-04-15T03:36:16.569Z,59.0662
2023-04-15T03:37:17.574Z,58.7829
2023-04-15T03:38:18.597Z,59.1988
2023-04-15T03:39:19.651Z,59.5619
2023-04-15T03:40:20.685Z,59.2847
2023-04-15T03:41:21.756Z,59.6160
2023-04-15T03:42:22.766Z,58.6888
2023-04-15T03:43:23.778Z,57.1943
2023-04-15T03:44:24.854Z,56.6048
2023-04-15T03:45:25.855Z,56.1302
2023-04-15T03:46:26.962Z,55.3636
2023-04-15T03:47:27.971Z,55.7609
2023-04-15T03:48:29.005Z,56.5456
2023-04-15T03:49:30.025Z,56.1774
2023-04-15T03:50:31.054Z,56.3384
2023-04-15T03:51:32.126Z,57.2885
2023-04-15T03:52:33.151Z,57.3648
2023-04-15T03:53:34.187Z,58.6615
2023-04-15T03:54:35.238Z,58.5553
2023-04-15T03:55:36.297Z,57.9037
2023-04-15T03:56:37.379Z,57.6188
2023-04-15T03:57:38.390Z,57.1457
2023-04-15T03:58:39.433Z,57.0760
2023-04-15T03:59:40.476Z,57.4183
2023-04-15T04:00:41.575Z,57.3158
2023-04-15T04:01:42.688Z,57.0522
2023-04-15T04:02:43.726Z,57.0685
2023-04-15T04:03:44.813Z,57.1044
2023-04-15T04:04:45.714Z,57.9733
2023-04-15T04:05:46.754Z,57.8481
2023-04-15T04:06:47.828Z,57.8266
2023-04-15T04:07:48.821Z,58.2976
2023-04-15T04:08:49.873Z,59.2566
2023-04-15T04:09:50.934Z,59.4346
2023-04-15T04:10:51.953Z,59.6761
2023-04-15T04:11:53.033Z,60.3363
2023-04-15T04:12:54.039Z,60.5945
2023-04-15T04:13:55.133Z,60.9997
2023-04-15T04:14:56.170Z,61.2452
2023-04-15T04:15:57.334Z,61.5980
2023-04-15T04:16:58.335Z,61.8619
2023-04-15T04:17:59.326Z,61.8726
2023-04-15T04:19:00.612Z,61.8160
2023-04-15T04:20:01.381Z,61.5964
2023-04-15T04:21:02.390Z,61.4852
2023-04-15T04:22:03.516Z,61.0787
2023-04-15T04:23:04.467Z,61.0287
2023-04-15T04:24:05.672Z,61.2880
2023-04-15T04:25:06.705Z,61.1451
2023-04-15T04:26:07.772Z,62.1115
2023-04-15T04:27:08.829Z,61.9442
2023-04-15T04:28:09.837Z,61.6798
2023-04-15T04:29:10.869Z,61.4303
2023-04-15T04:30:11.933Z,61.0378
2023-04-15T04:31:13.054Z,61.0974
2023-04-15T04:32:14.123Z,61.1199
2023-04-15T04:33:15.075Z,61.1757
2023-04-15T04:34:16.074Z,60.8788
2023-04-15T04:35:17.153Z,60.9704
2023-04-15T04:36:18.375Z,60.8503
2023-04-15T04:37:19.301Z,60.8432
2023-04-15T04:38:20.281Z,60.2281
2023-04-15T04:39:21.389Z,59.9768
2023-04-15T04:40:22.371Z,59.9621
2023-04-15T04:41:23.374Z,59.5660
2023-04-15T04:42:24.545Z,60.0138
2023-04-15T04:43:25.487Z,60.0033
2023-04-15T04:44:26.649Z,59.6688
2023-04-15T04:45:27.557Z,59.2485
2023-04-15T04:46:28.634Z,59.4056
2023-04-15T04:47:29.782Z,59.4928
2023-04-15T04:48:30.705Z,59.8149
2023-04-15T04:49:31.722Z,59.6413
2023-04-15T04:50:32.771Z,59.7907
2023-04-15T04:51:33.828Z,59.9463
2023-04-15T04:52:34.975Z,60.2181
2023-04-15T04:53:35.931Z,60.2676
2023-04-15T04:54:36.972Z,60.2800
2023-04-15T04:55:38.028Z,60.1416
2023-04-15T04:56:39.070Z,60.4492
2023-04-15T04:57:40.168Z,60.2348
2023-04-15T04:58:41.108Z,60.1563
2023-04-15T04:59:42.209Z,60.3111
2023-04-15T05:00:43.199Z,59.9126
2023-04-15T05:01:44.474Z,59.0879
2023-04-15T05:02:45.515Z,58.8393
2023-04-15T05:03:46.422Z,58.2365
2023-04-15T05:04:47.365Z,57.8718
2023-04-15T05:05:48.508Z,57.8662
2023-04-15T05:06:49.533Z,57.8474
2023-04-15T05:07:50.547Z,57.9420
2023-04-15T05:08:51.537Z,57.4558
2023-04-15T05:09:52.663Z,58.0636
2023-04-15T05:10:53.616Z,58.3218
2023-04-15T05:11:54.723Z,58.4275
2023-04-15T05:12:55.805Z,58.6892
2023-04-15T05:13:56.794Z,59.0295
2023-04-15T05:14:57.829Z,59.1233
2023-04-15T05:15:58.924Z,59.4292
2023-04-15T05:17:00.454Z,60.0418
2023-04-15T05:18:00.934Z,59.5405
2023-04-15T05:19:02.179Z,59.1662
2023-04-15T05:20:02.967Z,58.3657
2023-04-15T05:21:04.035Z,58.5476
2023-04-15T05:22:05.059Z,58.3400
2023-04-15T05:23:06.159Z,57.9668
2023-04-15T05:24:07.137Z,56.8983
2023-04-15T05:25:08.190Z,56.6050
2023-04-15T05:26:09.240Z,56.2987
2023-04-15T05:27:10.261Z,57.1099
2023-04-15T05:28:11.372Z,57.6024
2023-04-15T05:29:12.349Z,58.3279
2023-04-15T05:30:13.842Z,58.4785
2023-04-15T05:31:14.513Z,58.0974
2023-04-15T05:32:15.491Z,57.8142
2023-04-15T05:33:16.603Z,58.4193
2023-04-15T05:34:17.562Z,58.7978
2023-04-15T05:35:18.640Z,59.0892
2023-04-15T05:36:19.659Z,59.0045
2023-04-15T05:37:20.700Z,59.2364
2023-04-15T05:38:21.774Z,59.1108
2023-04-15T05:39:22.775Z,59.2116
2023-04-15T05:40:23.840Z,59.9863
2023-04-15T05:41:24.878Z,60.4313
2023-04-15T05:42:25.916Z,60.3022
2023-04-15T05:43:26.993Z,59.8320
2023-04-15T05:44:28.054Z,59.3033
2023-04-15T05:45:29.059Z,58.8356
2023-04-15T05:46:30.144Z,59.1085
2023-04-15T05:47:31.147Z,59.5567
2023-04-15T05:48:32.192Z,58.9905
2023-04-15T05:49:33.185Z,58.9251
2023-04-15T05:50:34.260Z,60.0439
2023-04-15T05:51:35.297Z,60.6502
2023-04-15T05:52:36.323Z,59.8044
2023-04-15T05:53:37.452Z,59.2407
2023-04-15T05:54:38.971Z,59.4739
2023-04-15T05:55:39.478Z,59.7359
2023-04-15T05:56:40.492Z,59.5744
2023-04-15T05:57:41.574Z,59.7435
2023-04-15T05:58:42.617Z,59.9749
2023-04-15T05:59:43.614Z,60.3883
2023-04-15T06:00:44.678Z,60.1090
2023-04-15T06:01:45.710Z,60.0460
2023-04-15T06:02:46.961Z,59.6189
2023-04-15T06:03:47.938Z,59.4522
2023-04-15T06:04:48.846Z,59.6332
2023-04-15T06:05:49.894Z,59.6552
2023-04-15T06:06:50.918Z,59.8028
2023-04-15T06:07:52.017Z,59.6810
2023-04-15T06:08:53.112Z,59.8459
2023-04-15T06:09:54.129Z,59.8737
2023-04-15T06:10:55.198Z,59.6264
2023-04-15T06:11:56.220Z,59.1562
2023-04-15T06:12:57.192Z,58.6253
2023-04-15T06:13:58.352Z,57.8795
2023-04-15T06:15:00.235Z,57.4715
2023-04-15T06:16:00.429Z,57.0830
2023-04-15T06:17:01.436Z,57.1633
2023-04-15T06:18:02.540Z,57.3345
2023-04-15T06:19:03.510Z,57.1619
2023-04-15T06:20:04.468Z,57.4663
2023-04-15T06:21:05.509Z,57.7217
2023-04-15T06:22:06.560Z,56.9756
2023-04-15T06:23:07.554Z,56.7157
2023-04-15T06:24:08.704Z,56.5608
2023-04-15T06:25:09.626Z,56.0624
2023-04-15T06:26:10.747Z,56.1294
2023-04-15T06:27:11.723Z,56.6769
2023-04-15T06:28:12.752Z,56.7508
2023-04-15T06:29:13.850Z,56.9625
2023-04-15T06:30:14.827Z,57.8074
2023-04-15T06:31:15.863Z,57.9871
2023-04-15T06:32:16.949Z,57.2677
2023-04-15T06:33:17.989Z,57.2483
2023-04-15T06:34:19.014Z,57.2133
2023-04-15T06:35:20.054Z,57.6583
2023-04-15T06:36:21.076Z,58.1356
2023-04-15T06:37:22.131Z,57.8686
2023-04-15T06:38:23.151Z,57.9578
2023-04-15T06:39:24.267Z,57.3315
2023-04-15T06:40:25.303Z,55.8332
2023-04-15T06:41:26.269Z,55.7663
2023-04-15T06:42:27.307Z,56.3410
2023-04-15T06:43:28.333Z,56.4829
2023-04-15T06:44:29.403Z,56.7330
2023-04-15T06:45:30.511Z,57.0892
2023-04-15T06:46:31.471Z,56.1968
2023-04-15T06:47:32.516Z,55.3530
2023-04-15T06:48:33.510Z,54.7179
2023-04-15T06:49:34.628Z,54.6641
2023-04-15T06:50:35.662Z,54.8736
2023-04-15T06:51:36.664Z,55.7285
2023-04-15T06:52:37.706Z,55.1110
2023-04-15T06:53:38.715Z,54.8690
2023-04-15T06:54:39.818Z,55.5108
2023-04-15T06:55:40.830Z,55.5284
2023-04-15T06:56:41.813Z,55.5744
2023-04-15T06:57:42.875Z,56.5839
2023-04-15T06:58:43.947Z,57.2995
2023-04-15T06:59:44.902Z,57.7727
2023-04-15T07:00:45.957Z,57.4429
2023-04-15T07:01:46.956Z,56.3141
2023-04-15T07:02:48.056Z,56.0696
2023-04-15T07:03:49.128Z,56.4865
2023-04-15T07:04:50.149Z,56.7295
2023-04-15T07:05:51.135Z,56.4339
2023-04-15T07:06:52.223Z,56.4610
2023-04-15T07:07:53.253Z,55.8354
2023-04-15T07:08:54.288Z,55.3640
2023-04-15T07:09:55.343Z,55.3808
2023-04-15T07:10:56.359Z,55.7768
2023-04-15T07:11:57.397Z,56.5508
2023-04-15T07:12:58.401Z,56.5346
2023-04-15T07:13:59.475Z,56.7375
2023-04-15T07:15:00.516Z,56.2463
2023-04-15T07:16:01.650Z,56.4888
2023-04-15T07:17:02.608Z,56.6497
2023-04-15T07:18:03.621Z,57.2171
2023-04-15T07:19:04.817Z,56.7906
2023-04-15T07:20:05.684Z,57.0339
2023-04-15T07:21:06.710Z,58.1233
2023-04-15T07:22:07.777Z,57.6509
2023-04-15T07:23:08.982Z,57.0747
2023-04-15T07:24:09.799Z,56.8393
2023-04-15T07:25:11.183Z,56.2637
2023-04-15T07:26:11.933Z,56.2196
2023-04-15T07:27:12.944Z,56.2467
2023-04-15T07:28:13.973Z,56.7818
2023-04-15T07:29:15.020Z,57.0985
2023-04-15T07:30:16.062Z,58.3012
2023-04-15T07:31:17.184Z,58.8105
2023-04-15T07:32:18.128Z,58.6947
2023-04-15T07:33:19.171Z,59.1229
2023-04-15T07:34:20.399Z,59.0971
2023-04-15T07:35:21.233Z,59.2884
2023-04-15T07:36:22.323Z,59.2207
2023-04-15T07:37:23.332Z,59.0363
2023-04-15T07:38:24.375Z,58.4545
2023-04-15T07:39:25.411Z,58.3354
2023-04-15T07:40:26.493Z,59.0889
2023-04-15T07:41:27.572Z,60.7222
2023-04-15T07:42:28.537Z,61.6858
2023-04-15T07:43:29.595Z,61.4374
2023-04-15T07:44:30.619Z,60.9417
2023-04-15T07:45:31.680Z,59.6546
2023-04-15T07:46:32.774Z,59.2942
2023-04-15T07:47:33.787Z,59.3903
2023-04-15T07:48:35.610Z,60.0178
2023-04-15T07:49:35.916Z,60.3417
2023-04-15T07:50:36.991Z,59.8130
2023-04-15T07:51:38.069Z,59.9166
2023-04-15T07:52:39.057Z,59.3382
2023-04-15T07:53:40.118Z,59.8462
2023-04-15T07:54:41.138Z,60.3941
2023-04-15T07:55:42.184Z,60.3377
2023-04-15T07:56:43.280Z,60.0169
2023-04-15T07:57:44.214Z,59.4296
2023-04-15T07:58:45.260Z,59.8702
2023-04-15T07:59:46.299Z,59.6164
2023-04-15T08:00:47.392Z,59.2250
2023-04-15T08:01:48.477Z,59.4767
2023-04-15T08:02:49.553Z,60.4835
2023-04-15T08:03:50.671Z,61.1741
2023-04-15T08:04:51.704Z,61.2020
2023-04-15T08:05:52.619Z,61.2498
2023-04-15T08:06:53.636Z,61.5804
2023-04-15T08:07:54.641Z,62.0763
2023-04-15T08:08:55.747Z,62.2448
2023-04-15T08:09:56.680Z,62.1872
2023-04-15T08:10:57.766Z,62.4563
2023-04-15T08:11:58.837Z,62.4253
2023-04-15T08:12:59.899Z,62.1466
2023-04-15T08:14:00.835Z,61.9383
2023-04-15T08:15:01.924Z,61.8633
2023-04-15T08:16:03.005Z,62.8718
2023-04-15T08:17:04.038Z,62.5129
2023-04-15T08:18:05.020Z,61.1778
2023-04-15T08:19:06.046Z,61.1876
2023-04-15T08:20:07.082Z,61.8339
2023-04-15T08:21:08.159Z,61.8951
2023-04-15T08:22:15.371Z,61.8630
2023-04-15T08:23:10.166Z,61.1568
2023-04-15T08:24:11.261Z,61.0447
2023-04-15T08:25:12.246Z,60.3964
2023-04-15T08:26:13.388Z,60.5458
2023-04-15T08:27:14.433Z,60.3265
2023-04-15T08:28:15.410Z,60.0467
2023-04-15T08:29:16.437Z,59.5847
2023-04-15T08:30:17.479Z,59.5395
2023-04-15T08:31:18.557Z,59.9670
2023-04-15T08:32:19.636Z,59.3965
2023-04-15T08:33:20.593Z,59.5593
2023-04-15T08:34:21.626Z,59.9373
2023-04-15T08:35:22.806Z,59.7437
2023-04-15T08:36:23.736Z,58.4627
2023-04-15T08:37:24.668Z,58.5978
2023-04-15T08:38:25.710Z,58.8472
2023-04-15T08:39:26.732Z,58.7830
2023-04-15T08:40:27.795Z,58.3138
2023-04-15T08:41:28.814Z,57.7580
2023-04-15T08:42:29.915Z,58.0252
2023-04-15T08:43:30.892Z,57.6271
2023-04-15T08:44:31.972Z,57.4341
2023-04-15T08:45:32.998Z,57.5325
2023-04-15T08:46:34.032Z,56.4938
2023-04-15T08:47:35.073Z,56.2128
2023-04-15T08:48:36.057Z,56.3487
2023-04-15T08:49:37.100Z,56.3135
2023-04-15T08:50:38.142Z,56.7194
2023-04-15T08:51:39.187Z,57.6021
2023-04-15T08:52:40.261Z,57.1173
2023-04-15T08:53:41.266Z,56.7154
2023-04-15T08:54:42.308Z,55.6982
2023-04-15T08:55:43.309Z,55.6315
2023-04-15T08:56:44.414Z,56.0666
2023-04-15T08:57:45.450Z,56.4332
2023-04-15T08:58:46.465Z,56.3794
2023-04-15T08:59:47.528Z,56.0128
2023-04-15T09:00:48.650Z,56.4647
2023-04-15T09:01:49.628Z,57.7436
2023-04-15T09:02:50.730Z,59.4667
2023-04-15T09:03:51.777Z,60.9640
2023-04-15T09:04:52.921Z,61.5526
2023-04-15T09:05:53.762Z,61.3709
2023-04-15T09:06:54.782Z,60.7789
2023-04-15T09:07:55.935Z,59.6168
2023-04-15T09:08:56.861Z,59.4638
2023-04-15T09:09:57.923Z,59.7168
2023-04-15T09:10:58.990Z,60.0893
2023-04-15T09:11:59.998Z,60.4701
2023-04-15T09:13:01.089Z,59.5433
2023-04-15T09:14:02.080Z,60.5270
2023-04-15T09:15:03.141Z,60.8535
2023-04-15T09:16:04.232Z,62.1409
2023-04-15T09:17:05.295Z,61.4851
2023-04-15T09:18:06.264Z,61.6753
2023-04-15T09:19:07.265Z,60.1122
2023-04-15T09:20:08.300Z,58.0306
2023-04-15T09:21:09.638Z,58.8489
2023-04-15T09:22:10.357Z,60.5338
2023-04-15T09:23:11.484Z,59.8991
2023-04-15T09:24:12.433Z,60.4617
2023-04-15T09:25:13.514Z,60.1794
2023-04-15T09:26:14.510Z,60.8151
2023-04-15T09:27:15.544Z,61.2946
2023-04-15T09:28:16.619Z,60.0303
2023-04-15T09:29:17.622Z,61.1419
2023-04-15T09:30:18.685Z,61.5294
2023-04-15T09:31:19.747Z,62.0876
2023-04-15T09:32:20.712Z,60.9751
2023-04-15T09:33:21.906Z,60.4389
2023-04-15T09:34:22.956Z,61.8561
2023-04-15T09:35:23.929Z,62.2823
2023-04-15T09:36:24.986Z,61.5698
2023-04-15T09:37:32.395Z,60.3278
2023-04-15T09:38:27.117Z,59.6560
2023-04-15T09:39:28.113Z,59.6510
2023-04-15T09:40:29.152Z,59.2987
2023-04-15T09:41:30.199Z,59.8092
2023-04-15T09:42:31.238Z,58.7982
2023-04-15T09:43:32.292Z,59.0913
2023-04-15T09:44:33.314Z,60.2618
2023-04-15T09:45:34.337Z,60.7276
2023-04-15T09:46:35.433Z,60.7330
2023-04-15T09:47:36.492Z,60.5275
2023-04-15T09:48:37.602Z,61.2734
2023-04-15T09:49:38.578Z,60.9093
2023-04-15T09:50:39.562Z,60.1466
2023-04-15T09:51:41.340Z,57.9254
2023-04-15T09:52:41.634Z,57.4879
2023-04-15T09:53:42.710Z,57.9174
2023-04-15T09:54:43.695Z,57.9387
2023-04-15T09:55:44.745Z,58.4540
2023-04-15T09:56:45.806Z,59.1297
2023-04-15T09:57:46.828Z,58.7880
2023-04-15T09:58:47.912Z,58.1227
2023-04-15T09:59:48.873Z,58.5348
2023-04-15T10:00:49.973Z,58.2582
2023-04-15T10:01:51.075Z,57.9580
2023-04-15T10:02:52.056Z,55.9657
2023-04-15T10:03:53.115Z,56.1733
2023-04-15T10:04:54.110Z,55.4205
2023-04-15T10:05:55.163Z,55.1999
2023-04-15T10:06:56.158Z,55.9366
2023-04-15T10:07:57.247Z,54.4608
2023-04-15T10:08:58.253Z,55.1786
2023-04-15T10:09:59.271Z,56.0020
2023-04-15T10:11:00.277Z,56.0165
2023-04-15T10:12:01.324Z,57.4407
2023-04-15T10:13:02.356Z,58.6757
2023-04-15T10:14:03.745Z,59.0023
2023-04-15T10:15:04.423Z,58.1199
2023-04-15T10:16:05.483Z,58.4563
2023-04-15T10:17:06.478Z,58.7625
2023-04-15T10:18:07.766Z,58.4878
2023-04-15T10:19:08.523Z,58.6092
2023-04-15T10:20:09.516Z,58.8370
2023-04-15T10:21:10.543Z,59.4959
2023-04-15T10:22:11.616Z,58.5093
2023-04-15T10:23:13.462Z,59.0871
2023-04-15T10:24:13.696Z,60.1229
2023-04-15T10:25:14.702Z,60.7789
2023-04-15T10:26:15.734Z,60.9354
2023-04-15T10:27:16.788Z,60.6682
2023-04-15T10:28:17.810Z,61.2701
2023-04-15T10:29:18.882Z,61.6597
2023-04-15T10:30:19.899Z,61.3303
2023-04-15T10:31:20.971Z,60.1491
2023-04-15T10:32:21.991Z,61.1526
2023-04-15T10:33:23.006Z,60.7053
2023-04-15T10:34:24.061Z,60.9411
2023-04-15T10:35:25.095Z,61.7347
2023-04-15T10:36:26.108Z,61.4752
2023-04-15T10:37:27.188Z,60.8483
2023-04-15T10:38:28.206Z,60.9434
2023-04-15T10:39:29.279Z,61.8858
2023-04-15T10:40:30.302Z,60.7484
2023-04-15T10:41:31.387Z,59.6459
2023-04-15T10:42:32.385Z,59.5532
2023-04-15T10:43:33.379Z,59.5860
2023-04-15T10:44:34.471Z,60.0769
2023-04-15T10:45:35.505Z,59.8143
2023-04-15T10:46:36.564Z,59.1949
2023-04-15T10:47:37.597Z,59.8829
2023-04-15T10:48:38.610Z,60.9217
2023-04-15T10:49:39.626Z,61.7475
2023-04-15T10:50:40.732Z,61.6923
2023-04-15T10:51:41.756Z,60.8010
2023-04-15T10:52:42.738Z,61.6086
2023-04-15T10:53:43.801Z,61.7355
2023-04-15T10:54:44.806Z,63.5289
2023-04-15T10:55:45.867Z,63.9729
2023-04-15T10:56:46.899Z,63.4240
2023-04-15T10:57:47.934Z,62.3118
2023-04-15T10:58:48.998Z,61.9911
2023-04-15T10:59:50.029Z,60.8067
2023-04-15T11:00:51.068Z,60.9429
2023-04-15T11:01:52.194Z,61.2911
2023-04-15T11:02:53.161Z,61.0567
2023-04-15T11:03:54.325Z,61.7213
2023-04-15T11:04:55.560Z,62.5238
2023-04-15T11:05:56.316Z,62.0314
2023-04-15T11:06:57.303Z,62.2130
2023-04-15T11:07:58.364Z,62.3613
2023-04-15T11:08:59.463Z,62.3261
2023-04-15T11:10:00.434Z,62.3546
2023-04-15T11:11:01.512Z,60.8472
2023-04-15T11:12:02.503Z,59.5398
2023-04-15T11:13:03.552Z,59.2641
2023-04-15T11:14:04.733Z,60.3613
2023-04-15T11:15:05.605Z,60.6201
2023-04-15T11:16:06.748Z,61.5582
2023-04-15T11:17:07.760Z,60.9412
2023-04-15T11:18:08.907Z,59.9162
2023-04-15T11:19:09.883Z,58.3686
2023-04-15T11:20:10.913Z,59.5319
2023-04-15T11:21:12.035Z,59.0940
2023-04-15T11:22:12.949Z,60.3123
2023-04-15T11:23:15.015Z,61.5162
2023-04-15T11:24:15.104Z,61.0492
2023-04-15T11:25:16.075Z,60.2987
2023-04-15T11:26:17.187Z,60.0475
2023-04-15T11:27:18.183Z,60.5839
2023-04-15T11:28:19.181Z,60.1573
2023-04-15T11:29:20.239Z,60.3034
2023-04-15T11:30:21.302Z,61.5773
2023-04-15T11:31:22.461Z,62.1802
2023-04-15T11:32:23.415Z,62.0746
2023-04-15T11:33:24.447Z,61.9521
2023-04-15T11:34:25.449Z,61.4654
2023-04-15T11:35:26.533Z,62.1718
2023-04-15T11:36:27.614Z,62.4048
2023-04-15T11:37:28.592Z,62.8790
2023-04-15T11:38:29.640Z,63.7108
2023-04-15T11:39:30.686Z,64.7325
2023-04-15T11:40:31.761Z,63.6364
2023-04-15T11:41:32.830Z,63.8215
2023-04-15T11:42:48.571Z,63.5401
2023-04-15T11:43:34.853Z,64.1583
2023-04-15T11:44:35.887Z,64.1903
2023-04-15T11:45:37.039Z,63.5403
2023-04-15T11:46:37.882Z,63.3740
2023-04-15T11:47:38.926Z,63.8476
2023-04-15T11:48:39.937Z,63.5835
2023-04-15T11:49:40.982Z,63.3937
2023-04-15T11:50:42.022Z,62.9601
2023-04-15T11:51:43.103Z,64.3893
2023-04-15T11:52:44.102Z,64.3755
2023-04-15T11:53:45.123Z,64.4721
2023-04-15T11:54:46.193Z,63.7706
2023-04-15T11:55:47.220Z,62.9244
2023-04-15T11:56:48.282Z,64.0132
2023-04-15T11:57:49.309Z,63.9039
2023-04-15T11:58:50.329Z,64.3163
2023-04-15T11:59:51.373Z,64.1568
2023-04-15T12:00:52.424Z,65.5798
2023-04-15T12:01:53.483Z,65.2831
2023-04-15T12:02:54.756Z,63.8981
2023-04-15T12:03:55.577Z,63.6730
2023-04-15T12:04:56.624Z,63.8379
2023-04-15T12:05:57.573Z,63.9284
2023-04-15T12:06:58.617Z,64.2825
2023-04-15T12:07:59.650Z,64.3989
2023-04-15T12:09:00.710Z,63.2353
2023-04-15T12:10:01.700Z,62.2272
2023-04-15T12:11:02.746Z,63.3700
2023-04-15T12:12:03.877Z,63.2558
2023-04-15T12:13:04.846Z,62.9006
2023-04-15T12:14:06.163Z,62.9052
2023-04-15T12:15:06.905Z,63.1048
2023-04-15T12:16:07.974Z,62.6659
2023-04-15T12:17:09.034Z,62.8991
2023-04-15T12:18:10.070Z,62.8761